sensor_id;sensor_type;location;lat;lon;timestamp;pressure;altitude;pressure_sealevel;temperature;humidity
41312;BME280;27061;41.648;24.568;2023-07-13T00:00:52;86537.63;;;21.85;59.69
41312;BME280;27061;41.648;24.568;2023-07-13T00:03:19;86552.53;;;22.01;59.02
41312;BME280;27061;41.648;24.568;2023-07-13T00:05:47;86554.88;;;21.77;59.81
41312;BME280;27061;41.648;24.568;2023-07-13T00:08:14;86547.38;;;21.88;59.52
41312;BME280;27061;41.648;24.568;2023-07-13T00:10:41;86565.38;;;21.96;59.34
41312;BME280;27061;41.648;24.568;2023-07-13T00:13:09;86552.25;;;21.90;59.76
41312;BME280;27061;41.648;24.568;2023-07-13T00:15:36;86548.91;;;21.85;59.31
41312;BME280;27061;41.648;24.568;2023-07-13T00:18:03;86552.47;;;21.84;58.83
41312;BME280;27061;41.648;24.568;2023-07-13T00:20:31;86550.69;;;21.93;58.85
41312;BME280;27061;41.648;24.568;2023-07-13T00:22:59;86527.97;;;21.80;58.74
41312;BME280;27061;41.648;24.568;2023-07-13T00:25:26;86532.16;;;21.81;58.14
41312;BME280;27061;41.648;24.568;2023-07-13T00:27:55;86524.47;;;21.80;58.20
41312;BME280;27061;41.648;24.568;2023-07-13T00:30:22;86562.44;;;22.00;58.18
41312;BME280;27061;41.648;24.568;2023-07-13T00:32:49;86563.94;;;21.97;58.46
41312;BME280;27061;41.648;24.568;2023-07-13T00:35:31;86528.22;;;21.74;57.75
41312;BME280;27061;41.648;24.568;2023-07-13T00:37:58;86533.00;;;21.78;58.06
41312;BME280;27061;41.648;24.568;2023-07-13T00:40:25;86548.28;;;21.83;58.39
41312;BME280;27061;41.648;24.568;2023-07-13T00:42:53;86508.91;;;21.47;58.28
41312;BME280;27061;41.648;24.568;2023-07-13T00:47:47;86511.91;;;21.60;58.02
41312;BME280;27061;41.648;24.568;2023-07-13T00:50:16;86481.56;;;21.27;58.19
41312;BME280;27061;41.648;24.568;2023-07-13T00:52:47;86519.00;;;21.59;57.99
41312;BME280;27061;41.648;24.568;2023-07-13T00:55:18;86525.53;;;21.53;58.24
41312;BME280;27061;41.648;24.568;2023-07-13T00:57:48;86490.75;;;21.26;58.15
41312;BME280;27061;41.648;24.568;2023-07-13T01:00:16;86519.69;;;21.60;57.89
41312;BME280;27061;41.648;24.568;2023-07-13T01:02:45;86472.00;;;21.37;56.93
41312;BME280;27061;41.648;24.568;2023-07-13T01:05:20;86537.88;;;21.79;57.35
41312;BME280;27061;41.648;24.568;2023-07-13T01:07:49;86508.03;;;21.51;57.50
41312;BME280;27061;41.648;24.568;2023-07-13T01:10:16;86517.28;;;21.66;57.48
41312;BME280;27061;41.648;24.568;2023-07-13T01:12:44;86529.84;;;21.69;57.40
41312;BME280;27061;41.648;24.568;2023-07-13T01:15:41;86530.44;;;21.72;56.88
41312;BME280;27061;41.648;24.568;2023-07-13T01:18:13;86494.06;;;21.49;56.50
41312;BME280;27061;41.648;24.568;2023-07-13T01:20:46;86523.94;;;21.75;56.92
41312;BME280;27061;41.648;24.568;2023-07-13T01:23:13;86494.06;;;21.49;56.52
41312;BME280;27061;41.648;24.568;2023-07-13T01:25:40;86523.00;;;21.64;56.93
41312;BME280;27061;41.648;24.568;2023-07-13T01:28:08;86518.38;;;21.57;57.48
41312;BME280;27061;41.648;24.568;2023-07-13T01:30:39;86493.78;;;21.38;57.37
41312;BME280;27061;41.648;24.568;2023-07-13T01:33:08;86525.31;;;21.60;57.13
41312;BME280;27061;41.648;24.568;2023-07-13T01:35:36;86526.81;;;21.40;57.32
41312;BME280;27061;41.648;24.568;2023-07-13T01:38:04;86493.66;;;21.24;57.11
41312;BME280;27061;41.648;24.568;2023-07-13T01:40:31;86522.22;;;21.49;57.07
41312;BME280;27061;41.648;24.568;2023-07-13T01:42:59;86519.31;;;21.51;57.39
41312;BME280;27061;41.648;24.568;2023-07-13T01:45:26;86481.88;;;21.19;57.23
41312;BME280;27061;41.648;24.568;2023-07-13T01:47:53;86521.53;;;21.48;56.91
41312;BME280;27061;41.648;24.568;2023-07-13T01:50:20;86511.38;;;21.39;56.93
41312;BME280;27061;41.648;24.568;2023-07-13T01:52:47;86513.94;;;21.45;56.39
41312;BME280;27061;41.648;24.568;2023-07-13T01:55:14;86475.69;;;21.14;56.57
41312;BME280;27061;41.648;24.568;2023-07-13T01:57:42;86497.91;;;21.23;56.72
41312;BME280;27061;41.648;24.568;2023-07-13T02:00:10;86523.91;;;21.42;57.07
41312;BME280;27061;41.648;24.568;2023-07-13T02:02:46;86516.63;;;21.30;57.05
41312;BME280;27061;41.648;24.568;2023-07-13T02:05:13;86521.19;;;21.40;57.16
41312;BME280;27061;41.648;24.568;2023-07-13T02:07:41;86514.47;;;21.31;56.97
41312;BME280;27061;41.648;24.568;2023-07-13T02:10:10;86514.81;;;21.23;57.07
41312;BME280;27061;41.648;24.568;2023-07-13T02:12:38;86515.13;;;21.14;56.92
41312;BME280;27061;41.648;24.568;2023-07-13T02:15:05;86489.34;;;21.08;56.72
41312;BME280;27061;41.648;24.568;2023-07-13T02:17:34;86528.81;;;21.25;57.20
41312;BME280;27061;41.648;24.568;2023-07-13T02:20:03;86516.56;;;21.13;57.39
41312;BME280;27061;41.648;24.568;2023-07-13T02:22:31;86497.09;;;20.89;57.83
41312;BME280;27061;41.648;24.568;2023-07-13T02:24:59;86540.22;;;21.21;57.18
41312;BME280;27061;41.648;24.568;2023-07-13T02:27:26;86482.91;;;20.74;57.50
41312;BME280;27061;41.648;24.568;2023-07-13T02:29:53;86538.94;;;21.17;57.54
41312;BME280;27061;41.648;24.568;2023-07-13T02:32:21;86534.59;;;21.21;57.11
41312;BME280;27061;41.648;24.568;2023-07-13T02:34:50;86533.53;;;21.11;57.42
41312;BME280;27061;41.648;24.568;2023-07-13T02:37:17;86530.56;;;21.15;57.27
41312;BME280;27061;41.648;24.568;2023-07-13T02:39:44;86493.13;;;20.65;57.68
41312;BME280;27061;41.648;24.568;2023-07-13T02:42:12;86478.44;;;20.43;58.38
41312;BME280;27061;41.648;24.568;2023-07-13T02:44:39;86480.03;;;20.38;58.19
41312;BME280;27061;41.648;24.568;2023-07-13T02:47:06;86503.06;;;20.62;57.79
41312;BME280;27061;41.648;24.568;2023-07-13T02:49:33;86518.13;;;20.73;57.79
41312;BME280;27061;41.648;24.568;2023-07-13T02:52:00;86553.94;;;20.93;57.56
41312;BME280;27061;41.648;24.568;2023-07-13T02:54:27;86480.16;;;20.34;57.85
41312;BME280;27061;41.648;24.568;2023-07-13T02:56:55;86551.50;;;20.83;58.05
41312;BME280;27061;41.648;24.568;2023-07-13T02:59:22;86524.81;;;20.63;57.83
41312;BME280;27061;41.648;24.568;2023-07-13T03:01:49;86559.88;;;20.85;57.70
41312;BME280;27061;41.648;24.568;2023-07-13T03:04:16;86555.91;;;20.78;58.09
41312;BME280;27061;41.648;24.568;2023-07-13T03:06:46;86556.22;;;20.70;58.08
41312;BME280;27061;41.648;24.568;2023-07-13T03:09:14;86552.88;;;20.65;58.62
41312;BME280;27061;41.648;24.568;2023-07-13T03:11:47;86546.41;;;20.50;58.64
41312;BME280;27061;41.648;24.568;2023-07-13T03:14:22;86552.03;;;20.50;58.68
41312;BME280;27061;41.648;24.568;2023-07-13T03:16:50;86519.00;;;20.30;58.41
41312;BME280;27061;41.648;24.568;2023-07-13T03:19:21;86558.22;;;20.13;59.96
41312;BME280;27061;41.648;24.568;2023-07-13T03:21:54;86512.47;;;19.96;59.76
41312;BME280;27061;41.648;24.568;2023-07-13T03:24:22;86564.94;;;20.22;59.80
41312;BME280;27061;41.648;24.568;2023-07-13T03:26:53;86548.84;;;20.21;60.07
41312;BME280;27061;41.648;24.568;2023-07-13T03:29:20;86530.41;;;20.05;59.89
41312;BME280;27061;41.648;24.568;2023-07-13T03:31:48;86513.59;;;20.03;59.92
41312;BME280;27061;41.648;24.568;2023-07-13T03:34:15;86523.66;;;20.17;59.75
41312;BME280;27061;41.648;24.568;2023-07-13T03:36:42;86542.31;;;20.26;59.74
41312;BME280;27061;41.648;24.568;2023-07-13T03:39:12;86522.03;;;20.03;60.26
41312;BME280;27061;41.648;24.568;2023-07-13T03:41:46;86556.16;;;20.32;60.39
41312;BME280;27061;41.648;24.568;2023-07-13T03:44:16;86519.53;;;19.95;61.35
41312;BME280;27061;41.648;24.568;2023-07-13T03:46:44;86533.28;;;20.03;61.02
41312;BME280;27061;41.648;24.568;2023-07-13T03:49:13;86564.50;;;20.34;61.15
41312;BME280;27061;41.648;24.568;2023-07-13T03:51:39;86565.75;;;20.39;61.10
41312;BME280;27061;41.648;24.568;2023-07-13T03:54:07;86561.50;;;20.40;61.43
41312;BME280;27061;41.648;24.568;2023-07-13T03:56:34;86560.13;;;20.39;61.39
41312;BME280;27061;41.648;24.568;2023-07-13T03:59:03;86545.03;;;20.28;62.06
41312;BME280;27061;41.648;24.568;2023-07-13T04:01:30;86562.81;;;20.43;62.43
41312;BME280;27061;41.648;24.568;2023-07-13T04:03:58;86569.66;;;20.49;63.18
41312;BME280;27061;41.648;24.568;2023-07-13T04:06:33;86492.28;;;19.91;62.65
41312;BME280;27061;41.648;24.568;2023-07-13T04:09:02;86536.34;;;20.36;63.72
41312;BME280;27061;41.648;24.568;2023-07-13T04:11:32;86535.97;;;20.46;64.71
41312;BME280;27061;41.648;24.568;2023-07-13T04:14:00;86553.91;;;20.56;64.09
41312;BME280;27061;41.648;24.568;2023-07-13T04:16:27;86512.53;;;20.33;63.49
41312;BME280;27061;41.648;24.568;2023-07-13T04:18:55;86555.00;;;20.65;62.79
41312;BME280;27061;41.648;24.568;2023-07-13T04:21:29;86561.84;;;20.70;63.81
41312;BME280;27061;41.648;24.568;2023-07-13T04:23:56;86526.03;;;20.50;64.50
41312;BME280;27061;41.648;24.568;2023-07-13T04:26:23;86515.06;;;20.41;65.74
41312;BME280;27061;41.648;24.568;2023-07-13T04:28:51;86522.44;;;20.51;66.19
41312;BME280;27061;41.648;24.568;2023-07-13T04:31:19;86564.19;;;20.82;65.79
41312;BME280;27061;41.648;24.568;2023-07-13T04:33:46;86518.28;;;20.50;66.07
41312;BME280;27061;41.648;24.568;2023-07-13T04:36:15;86500.84;;;20.45;66.47
41312;BME280;27061;41.648;24.568;2023-07-13T04:38:43;86509.81;;;20.31;67.27
41312;BME280;27061;41.648;24.568;2023-07-13T04:41:12;86549.91;;;20.88;67.36
41312;BME280;27061;41.648;24.568;2023-07-13T04:43:39;86556.13;;;20.91;67.14
41312;BME280;27061;41.648;24.568;2023-07-13T04:46:13;86568.00;;;21.12;66.86
41312;BME280;27061;41.648;24.568;2023-07-13T04:48:41;86555.00;;;21.02;67.62
41312;BME280;27061;41.648;24.568;2023-07-13T04:51:09;86534.91;;;20.94;67.06
41312;BME280;27061;41.648;24.568;2023-07-13T04:53:36;86555.22;;;21.15;67.83
41312;BME280;27061;41.648;24.568;2023-07-13T04:56:03;86571.50;;;21.31;67.33
41312;BME280;27061;41.648;24.568;2023-07-13T04:58:31;86573.56;;;21.33;66.20
41312;BME280;27061;41.648;24.568;2023-07-13T05:01:03;86544.34;;;21.24;65.42
41312;BME280;27061;41.648;24.568;2023-07-13T05:03:31;86581.66;;;21.41;65.62
41312;BME280;27061;41.648;24.568;2023-07-13T05:06:04;86587.44;;;21.55;64.85
41312;BME280;27061;41.648;24.568;2023-07-13T05:08:32;86559.25;;;21.39;64.70
41312;BME280;27061;41.648;24.568;2023-07-13T05:11:00;86589.03;;;21.69;65.17
41312;BME280;27061;41.648;24.568;2023-07-13T05:13:28;86577.75;;;21.69;64.18
41312;BME280;27061;41.648;24.568;2023-07-13T05:16:02;86577.16;;;21.83;64.13
41312;BME280;27061;41.648;24.568;2023-07-13T05:18:30;86579.06;;;21.89;64.47
41312;BME280;27061;41.648;24.568;2023-07-13T05:23:26;86534.72;;;21.71;64.46
41312;BME280;27061;41.648;24.568;2023-07-13T05:25:53;86585.66;;;22.17;68.11
41312;BME280;27061;41.648;24.568;2023-07-13T05:28:21;86551.66;;;22.04;67.38
41312;BME280;27061;41.648;24.568;2023-07-13T05:30:49;86520.91;;;21.98;66.17
41312;BME280;27061;41.648;24.568;2023-07-13T05:33:17;86547.22;;;22.26;67.31
41312;BME280;27061;41.648;24.568;2023-07-13T05:35:44;86568.25;;;22.46;64.36
41312;BME280;27061;41.648;24.568;2023-07-13T05:38:11;86582.03;;;22.69;64.91
41312;BME280;27061;41.648;24.568;2023-07-13T05:40:38;86588.56;;;22.82;64.33
41312;BME280;27061;41.648;24.568;2023-07-13T05:43:05;86564.25;;;22.72;61.82
41312;BME280;27061;41.648;24.568;2023-07-13T05:45:32;86586.97;;;23.02;62.42
41312;BME280;27061;41.648;24.568;2023-07-13T05:48:00;86592.94;;;23.10;60.67
41312;BME280;27061;41.648;24.568;2023-07-13T05:50:27;86585.28;;;23.23;59.97
41312;BME280;27061;41.648;24.568;2023-07-13T05:52:54;86584.81;;;23.33;60.08
41312;BME280;27061;41.648;24.568;2023-07-13T05:55:21;86571.16;;;23.23;59.28
41312;BME280;27061;41.648;24.568;2023-07-13T05:57:48;86564.34;;;23.33;60.20
41312;BME280;27061;41.648;24.568;2023-07-13T06:00:15;86589.66;;;23.66;61.36
41312;BME280;27061;41.648;24.568;2023-07-13T06:02:43;86561.50;;;23.50;60.69
41312;BME280;27061;41.648;24.568;2023-07-13T06:05:10;86563.34;;;23.55;60.07
41312;BME280;27061;41.648;24.568;2023-07-13T06:07:37;86588.41;;;23.93;60.53
41312;BME280;27061;41.648;24.568;2023-07-13T06:10:05;86596.59;;;24.14;58.85
41312;BME280;27061;41.648;24.568;2023-07-13T06:12:32;86554.38;;;23.95;58.17
41312;BME280;27061;41.648;24.568;2023-07-13T06:14:59;86602.44;;;24.39;57.05
41312;BME280;27061;41.648;24.568;2023-07-13T06:17:26;86588.88;;;24.41;56.05
41312;BME280;27061;41.648;24.568;2023-07-13T06:19:54;86576.69;;;24.45;56.70
41312;BME280;27061;41.648;24.568;2023-07-13T06:22:21;86586.56;;;24.73;56.51
41312;BME280;27061;41.648;24.568;2023-07-13T06:24:48;86591.69;;;24.84;55.76
41312;BME280;27061;41.648;24.568;2023-07-13T06:27:15;86588.97;;;24.96;56.38
41312;BME280;27061;41.648;24.568;2023-07-13T06:29:42;86591.25;;;25.06;55.09
41312;BME280;27061;41.648;24.568;2023-07-13T06:32:12;86566.75;;;25.01;53.16
41312;BME280;27061;41.648;24.568;2023-07-13T06:34:39;86587.25;;;25.29;53.69
41312;BME280;27061;41.648;24.568;2023-07-13T06:37:09;86584.34;;;25.43;52.73
41312;BME280;27061;41.648;24.568;2023-07-13T06:39:36;86547.13;;;25.24;52.53
41312;BME280;27061;41.648;24.568;2023-07-13T06:42:04;86577.81;;;25.60;52.15
41312;BME280;27061;41.648;24.568;2023-07-13T06:44:31;86587.97;;;25.82;52.05
41312;BME280;27061;41.648;24.568;2023-07-13T06:46:59;86538.13;;;25.60;51.04
41312;BME280;27061;41.648;24.568;2023-07-13T06:49:26;86581.59;;;26.07;51.72
41312;BME280;27061;41.648;24.568;2023-07-13T06:51:53;86560.03;;;25.99;48.32
41312;BME280;27061;41.648;24.568;2023-07-13T06:54:20;86576.63;;;26.33;48.70
41312;BME280;27061;41.648;24.568;2023-07-13T06:56:47;86575.94;;;26.45;50.34
41312;BME280;27061;41.648;24.568;2023-07-13T06:59:14;86585.13;;;26.58;48.69
41312;BME280;27061;41.648;24.568;2023-07-13T07:01:41;86567.84;;;26.49;48.16
41312;BME280;27061;41.648;24.568;2023-07-13T07:04:08;86579.63;;;26.79;48.86
41312;BME280;27061;41.648;24.568;2023-07-13T07:06:35;86561.44;;;26.74;48.83
41312;BME280;27061;41.648;24.568;2023-07-13T07:09:02;86542.63;;;26.69;48.69
41312;BME280;27061;41.648;24.568;2023-07-13T07:11:30;86594.97;;;27.20;48.50
41312;BME280;27061;41.648;24.568;2023-07-13T07:13:57;86579.22;;;27.34;47.70
41312;BME280;27061;41.648;24.568;2023-07-13T07:16:24;86593.50;;;27.45;47.12
41312;BME280;27061;41.648;24.568;2023-07-13T07:18:51;86594.38;;;27.54;46.49
41312;BME280;27061;41.648;24.568;2023-07-13T07:21:19;86580.84;;;27.54;46.64
41312;BME280;27061;41.648;24.568;2023-07-13T07:23:46;86562.41;;;27.53;43.83
41312;BME280;27061;41.648;24.568;2023-07-13T07:26:13;86580.59;;;27.82;44.51
41312;BME280;27061;41.648;24.568;2023-07-13T07:28:41;86587.28;;;27.99;42.32
41312;BME280;27061;41.648;24.568;2023-07-13T07:31:14;86564.13;;;27.95;43.93
41312;BME280;27061;41.648;24.568;2023-07-13T07:33:44;86575.81;;;28.12;44.26
41312;BME280;27061;41.648;24.568;2023-07-13T07:36:11;86565.44;;;28.19;42.44
41312;BME280;27061;41.648;24.568;2023-07-13T07:38:42;86586.78;;;28.41;41.23
41312;BME280;27061;41.648;24.568;2023-07-13T07:41:09;86593.06;;;28.55;40.78
41312;BME280;27061;41.648;24.568;2023-07-13T07:43:39;86587.94;;;28.68;41.49
41312;BME280;27061;41.648;24.568;2023-07-13T07:46:06;86583.06;;;28.77;39.16
41312;BME280;27061;41.648;24.568;2023-07-13T07:48:33;86589.34;;;28.90;40.27
41312;BME280;27061;41.648;24.568;2023-07-13T07:51:00;86574.00;;;28.85;38.69
41312;BME280;27061;41.648;24.568;2023-07-13T07:53:27;86592.34;;;29.09;39.52
41312;BME280;27061;41.648;24.568;2023-07-13T07:55:58;86593.16;;;29.19;37.70
41312;BME280;27061;41.648;24.568;2023-07-13T07:58:45;86599.53;;;29.30;36.53
41312;BME280;27061;41.648;24.568;2023-07-13T08:01:15;86596.53;;;29.32;34.07
41312;BME280;27061;41.648;24.568;2023-07-13T08:03:45;86593.97;;;29.49;37.83
41312;BME280;27061;41.648;24.568;2023-07-13T08:06:16;86581.19;;;29.48;37.47
41312;BME280;27061;41.648;24.568;2023-07-13T08:09:03;86571.69;;;29.62;37.46
41312;BME280;27061;41.648;24.568;2023-07-13T08:11:31;86599.44;;;29.94;38.76
41312;BME280;27061;41.648;24.568;2023-07-13T08:14:01;86593.47;;;30.08;35.43
41312;BME280;27061;41.648;24.568;2023-07-13T08:16:28;86579.22;;;29.98;36.68
41312;BME280;27061;41.648;24.568;2023-07-13T08:18:56;86579.44;;;30.15;38.94
41312;BME280;27061;41.648;24.568;2023-07-13T08:21:23;86594.72;;;30.31;35.24
41312;BME280;27061;41.648;24.568;2023-07-13T08:23:50;86518.22;;;29.82;36.05
41312;BME280;27061;41.648;24.568;2023-07-13T08:26:17;86552.47;;;30.23;34.70
41312;BME280;27061;41.648;24.568;2023-07-13T08:28:44;86596.13;;;30.62;34.81
41312;BME280;27061;41.648;24.568;2023-07-13T08:31:12;86581.97;;;30.60;37.46
41312;BME280;27061;41.648;24.568;2023-07-13T08:33:39;86594.06;;;30.90;37.09
41312;BME280;27061;41.648;24.568;2023-07-13T08:36:07;86578.19;;;30.82;37.61
41312;BME280;27061;41.648;24.568;2023-07-13T08:38:35;86594.19;;;31.07;35.93
41312;BME280;27061;41.648;24.568;2023-07-13T08:41:16;86580.38;;;31.01;36.76
41312;BME280;27061;41.648;24.568;2023-07-13T08:43:48;86595.13;;;31.34;36.12
41312;BME280;27061;41.648;24.568;2023-07-13T08:46:24;86594.00;;;31.39;34.40
41312;BME280;27061;41.648;24.568;2023-07-13T08:49:03;86595.81;;;31.34;34.22
41312;BME280;27061;41.648;24.568;2023-07-13T08:51:43;86591.56;;;31.52;34.34
41312;BME280;27061;41.648;24.568;2023-07-13T08:54:24;86578.00;;;31.61;34.98
41312;BME280;27061;41.648;24.568;2023-07-13T08:56:55;86602.09;;;31.84;32.22
41312;BME280;27061;41.648;24.568;2023-07-13T08:59:26;86591.34;;;31.93;30.13
41312;BME280;27061;41.648;24.568;2023-07-13T09:02:25;86602.72;;;32.04;33.25
41312;BME280;27061;41.648;24.568;2023-07-13T09:05:17;86596.03;;;32.16;32.10
41312;BME280;27061;41.648;24.568;2023-07-13T09:08:01;86588.88;;;32.25;32.41
41312;BME280;27061;41.648;24.568;2023-07-13T09:10:52;86570.13;;;32.18;31.62
41312;BME280;27061;41.648;24.568;2023-07-13T09:13:31;86596.22;;;32.50;32.44
41312;BME280;27061;41.648;24.568;2023-07-13T09:16:00;86587.63;;;32.50;29.25
41312;BME280;27061;41.648;24.568;2023-07-13T09:18:34;86569.59;;;32.52;29.86
41312;BME280;27061;41.648;24.568;2023-07-13T09:23:32;86587.56;;;32.78;29.88
41312;BME280;27061;41.648;24.568;2023-07-13T09:26:21;86584.56;;;32.89;27.51
41312;BME280;27061;41.648;24.568;2023-07-13T09:28:53;86584.94;;;33.02;29.93
41312;BME280;27061;41.648;24.568;2023-07-13T09:31:41;86578.84;;;33.06;29.36
41312;BME280;27061;41.648;24.568;2023-07-13T09:34:10;86574.19;;;33.28;29.61
41312;BME280;27061;41.648;24.568;2023-07-13T09:36:38;86571.66;;;33.24;27.47
41312;BME280;27061;41.648;24.568;2023-07-13T09:39:15;86531.13;;;33.11;24.15
41312;BME280;27061;41.648;24.568;2023-07-13T09:42:16;86570.47;;;33.38;26.33
41312;BME280;27061;41.648;24.568;2023-07-13T09:44:53;86567.13;;;33.53;26.71
41312;BME280;27061;41.648;24.568;2023-07-13T09:50:01;86569.13;;;33.63;27.46
41312;BME280;27061;41.648;24.568;2023-07-13T09:52:49;86559.00;;;33.73;27.77
41312;BME280;27061;41.648;24.568;2023-07-13T09:55:38;86525.56;;;33.61;29.60
41312;BME280;27061;41.648;24.568;2023-07-13T09:58:23;86552.59;;;33.90;27.99
41312;BME280;27061;41.648;24.568;2023-07-13T10:00:59;86550.56;;;33.88;26.73
41312;BME280;27061;41.648;24.568;2023-07-13T10:03:30;86525.19;;;33.91;28.18
41312;BME280;27061;41.648;24.568;2023-07-13T10:06:14;86541.38;;;34.20;28.67
41312;BME280;27061;41.648;24.568;2023-07-13T10:08:44;86526.50;;;34.17;27.76
41312;BME280;27061;41.648;24.568;2023-07-13T10:11:21;86547.75;;;34.38;27.41
41312;BME280;27061;41.648;24.568;2023-07-13T10:13:54;86527.28;;;34.42;27.06
41312;BME280;27061;41.648;24.568;2023-07-13T10:16:27;86509.94;;;34.27;27.04
41312;BME280;27061;41.648;24.568;2023-07-13T10:19:14;86527.38;;;34.57;26.86
41312;BME280;27061;41.648;24.568;2023-07-13T10:22:07;86529.72;;;34.63;25.63
41312;BME280;27061;41.648;24.568;2023-07-13T10:24:38;86501.50;;;34.57;28.01
41312;BME280;27061;41.648;24.568;2023-07-13T10:27:15;86508.72;;;34.73;27.35
41312;BME280;27061;41.648;24.568;2023-07-13T10:29:51;86516.41;;;34.92;28.69
41312;BME280;27061;41.648;24.568;2023-07-13T10:32:22;86466.84;;;34.59;29.51
41312;BME280;27061;41.648;24.568;2023-07-13T10:34:51;86519.53;;;35.05;27.46
41312;BME280;27061;41.648;24.568;2023-07-13T10:37:23;86516.78;;;35.12;26.96
41312;BME280;27061;41.648;24.568;2023-07-13T10:39:53;86492.81;;;35.07;27.11
41312;BME280;27061;41.648;24.568;2023-07-13T10:42:31;86513.44;;;35.33;26.87
41312;BME280;27061;41.648;24.568;2023-07-13T10:44:59;86497.53;;;35.34;28.42
41312;BME280;27061;41.648;24.568;2023-07-13T10:47:26;86477.09;;;35.21;26.65
41312;BME280;27061;41.648;24.568;2023-07-13T10:49:58;86420.50;;;34.87;27.19
41312;BME280;27061;41.648;24.568;2023-07-13T10:52:45;86504.47;;;35.52;26.99
41312;BME280;27061;41.648;24.568;2023-07-13T10:58:39;86496.38;;;35.70;28.16
41312;BME280;27061;41.648;24.568;2023-07-13T11:01:14;86432.94;;;35.25;26.64
41312;BME280;27061;41.648;24.568;2023-07-13T11:04:02;86478.13;;;35.65;26.74
41312;BME280;27061;41.648;24.568;2023-07-13T11:06:37;86491.72;;;35.82;26.69
41312;BME280;27061;41.648;24.568;2023-07-13T11:11:56;86486.16;;;35.95;23.20
41312;BME280;27061;41.648;24.568;2023-07-13T11:14:30;86492.50;;;36.04;24.50
41312;BME280;27061;41.648;24.568;2023-07-13T11:16:58;86491.75;;;35.97;22.77
41312;BME280;27061;41.648;24.568;2023-07-13T11:19:37;86478.38;;;35.93;25.96
41312;BME280;27061;41.648;24.568;2023-07-13T11:24:49;86492.09;;;35.93;24.01
41312;BME280;27061;41.648;24.568;2023-07-13T11:27:43;86493.38;;;36.03;25.94
41312;BME280;27061;41.648;24.568;2023-07-13T11:35:46;86498.44;;;35.87;24.55
41312;BME280;27061;41.648;24.568;2023-07-13T11:38:19;86472.03;;;35.45;23.29
41312;BME280;27061;41.648;24.568;2023-07-13T11:40:48;86482.28;;;35.75;25.60
41312;BME280;27061;41.648;24.568;2023-07-13T11:43:23;86478.22;;;35.72;23.19
41312;BME280;27061;41.648;24.568;2023-07-13T11:45:50;86483.56;;;35.84;25.50
41312;BME280;27061;41.648;24.568;2023-07-13T11:48:27;86478.47;;;35.85;23.82
41312;BME280;27061;41.648;24.568;2023-07-13T11:50:58;86442.31;;;35.55;24.30
41312;BME280;27061;41.648;24.568;2023-07-13T11:53:29;86473.13;;;35.72;22.94
41312;BME280;27061;41.648;24.568;2023-07-13T11:55:57;86444.69;;;35.53;22.50
41312;BME280;27061;41.648;24.568;2023-07-13T11:58:26;86476.16;;;35.79;25.12
41312;BME280;27061;41.648;24.568;2023-07-13T12:00:57;86471.09;;;35.79;24.17
41312;BME280;27061;41.648;24.568;2023-07-13T12:03:25;86448.28;;;35.69;25.72
41312;BME280;27061;41.648;24.568;2023-07-13T12:06:05;86461.59;;;35.81;24.19
41312;BME280;27061;41.648;24.568;2023-07-13T12:08:38;86466.00;;;35.80;28.11
41312;BME280;27061;41.648;24.568;2023-07-13T12:11:15;86446.53;;;35.72;24.76
41312;BME280;27061;41.648;24.568;2023-07-13T12:13:45;86456.41;;;35.90;25.78
41312;BME280;27061;41.648;24.568;2023-07-13T12:16:25;86442.94;;;35.80;26.28
41312;BME280;27061;41.648;24.568;2023-07-13T12:18:54;86424.03;;;35.74;24.85
41312;BME280;27061;41.648;24.568;2023-07-13T12:21:29;86390.47;;;35.40;24.12
41312;BME280;27061;41.648;24.568;2023-07-13T12:23:58;86368.25;;;35.23;24.39
41312;BME280;27061;41.648;24.568;2023-07-13T12:26:26;86408.94;;;35.74;26.85
41312;BME280;27061;41.648;24.568;2023-07-13T12:28:54;86447.06;;;36.05;26.83
41312;BME280;27061;41.648;24.568;2023-07-13T12:33:58;86436.41;;;36.18;25.97
41312;BME280;27061;41.648;24.568;2023-07-13T12:36:26;86409.91;;;35.94;23.24
41312;BME280;27061;41.648;24.568;2023-07-13T12:38:58;86449.66;;;36.15;25.02
41312;BME280;27061;41.648;24.568;2023-07-13T12:41:32;86430.06;;;35.94;27.51
41312;BME280;27061;41.648;24.568;2023-07-13T12:44:00;86441.03;;;36.15;26.77
41312;BME280;27061;41.648;24.568;2023-07-13T12:46:27;86438.75;;;36.24;26.82
41312;BME280;27061;41.648;24.568;2023-07-13T12:48:57;86440.09;;;36.25;23.74
41312;BME280;27061;41.648;24.568;2023-07-13T12:51:39;86418.56;;;36.24;25.96
41312;BME280;27061;41.648;24.568;2023-07-13T12:54:16;86434.50;;;36.39;23.34
41312;BME280;27061;41.648;24.568;2023-07-13T12:56:44;86390.13;;;36.05;26.52
41312;BME280;27061;41.648;24.568;2023-07-13T12:59:22;86400.13;;;36.21;25.02
41312;BME280;27061;41.648;24.568;2023-07-13T13:01:50;86379.19;;;35.99;26.01
41312;BME280;27061;41.648;24.568;2023-07-13T13:04:17;86408.59;;;36.23;24.78
41312;BME280;27061;41.648;24.568;2023-07-13T13:06:49;86433.34;;;36.36;24.83
41312;BME280;27061;41.648;24.568;2023-07-13T13:09:17;86421.25;;;36.42;24.60
41312;BME280;27061;41.648;24.568;2023-07-13T13:11:46;86404.63;;;36.42;26.06
41312;BME280;27061;41.648;24.568;2023-07-13T13:14:14;86417.22;;;36.39;23.06
41312;BME280;27061;41.648;24.568;2023-07-13T13:16:49;86416.03;;;36.51;23.44
41312;BME280;27061;41.648;24.568;2023-07-13T13:21:48;86421.22;;;36.57;25.62
41312;BME280;27061;41.648;24.568;2023-07-13T13:24:21;86388.81;;;36.56;25.84
41312;BME280;27061;41.648;24.568;2023-07-13T13:26:50;86400.34;;;36.56;25.13
41312;BME280;27061;41.648;24.568;2023-07-13T13:29:22;86395.16;;;36.65;27.20
41312;BME280;27061;41.648;24.568;2023-07-13T13:31:54;86357.97;;;36.55;25.93
41312;BME280;27061;41.648;24.568;2023-07-13T13:34:22;86409.69;;;36.94;25.80
41312;BME280;27061;41.648;24.568;2023-07-13T13:36:54;86416.69;;;37.03;25.90